Time;durP1;ratioP1;P1;durP2;ratioP2;P2;SDS_P1;SDS_P2;PMS_P1;PMS_P2;Temp;Humidity;BMP_temperature;BMP_pressure;BME280_temperature;BME280_humidity;BME280_pressure;Samples;Min_cycle;Max_cycle;Signal;HPM_P1;HPM_P2
2023/04/27 00:00:24;;;;;;;0.52;0.43;;;1.20;99.90;;;;;;5091651;28;20046;-69
2023/04/27 00:02:50;;;;;;;1.30;0.88;;;1.20;99.90;;;;;;5108308;28;20036;-69
2023/04/27 00:05:16;;;;;;;1.00;0.65;;;1.20;99.90;;;;;;5091215;28;20039;-69
2023/04/27 00:07:41;;;;;;;1.40;0.85;;;1.10;99.90;;;;;;5109637;28;20100;-69
2023/04/27 00:10:08;;;;;;;0.75;0.60;;;1.10;99.90;;;;;;5108245;28;20054;-69
2023/04/27 00:12:33;;;;;;;0.65;0.45;;;1.10;99.90;;;;;;5107359;28;20099;-69
2023/04/27 00:14:59;;;;;;;0.43;0.25;;;1.10;99.90;;;;;;5109758;28;20406;-69
2023/04/27 00:17:25;;;;;;;0.98;0.70;;;1.10;99.90;;;;;;5109632;28;20036;-70
2023/04/27 00:19:51;;;;;;;0.35;0.35;;;1.10;99.90;;;;;;5089997;28;20098;-69
2023/04/27 00:22:17;;;;;;;0.65;0.60;;;1.10;99.90;;;;;;5108012;28;20474;-69
2023/04/27 00:24:42;;;;;;;0.70;0.60;;;1.10;99.90;;;;;;5109305;28;20043;-69
2023/04/27 00:27:08;;;;;;;1.20;0.90;;;1.10;99.90;;;;;;5108936;28;20047;-69
2023/04/27 00:29:34;;;;;;;0.55;0.38;;;1.00;99.90;;;;;;5109524;28;20035;-69
2023/04/27 00:32:00;;;;;;;0.65;0.65;;;1.00;99.90;;;;;;5108176;28;20047;-69
2023/04/27 00:34:26;;;;;;;1.58;1.00;;;1.00;99.90;;;;;;5107337;28;20035;-69
2023/04/27 00:36:51;;;;;;;0.28;0.20;;;1.00;99.90;;;;;;5108174;28;20055;-69
2023/04/27 00:39:17;;;;;;;0.40;0.35;;;0.90;99.90;;;;;;5109431;28;20028;-69
2023/04/27 00:41:43;;;;;;;0.57;0.45;;;0.90;99.90;;;;;;5108518;28;20039;-69
2023/04/27 00:44:08;;;;;;;3.20;0.93;;;0.90;99.90;;;;;;5107879;28;20126;-69
2023/04/27 00:46:35;;;;;;;1.80;0.95;;;0.90;99.90;;;;;;5107512;28;20147;-69
2023/04/27 00:49:01;;;;;;;0.75;0.40;;;0.90;99.90;;;;;;5107722;28;20043;-69
2023/04/27 00:51:29;;;;;;;0.60;0.40;;;0.90;99.90;;;;;;5108052;28;20044;-69
2023/04/27 00:53:57;;;;;;;0.57;0.50;;;0.80;99.90;;;;;;5108663;28;20051;-69
2023/04/27 00:56:22;;;;;;;2.15;0.57;;;0.80;99.90;;;;;;5107600;28;20500;-69
2023/04/27 00:58:48;;;;;;;1.25;0.85;;;0.80;99.90;;;;;;5109238;28;20036;-69
2023/04/27 01:01:15;;;;;;;1.33;0.28;;;0.80;99.90;;;;;;5090363;28;20042;-69
2023/04/27 01:03:41;;;;;;;0.65;0.45;;;0.80;99.90;;;;;;5107862;28;20122;-69
2023/04/27 01:06:07;;;;;;;2.55;0.70;;;0.80;99.90;;;;;;5107730;28;20193;-69
2023/04/27 01:08:32;;;;;;;2.15;0.93;;;0.80;99.90;;;;;;5106995;28;20050;-69
2023/04/27 01:10:58;;;;;;;1.83;0.63;;;0.70;99.90;;;;;;5107567;28;20040;-69
2023/04/27 01:13:24;;;;;;;0.95;0.82;;;0.70;99.90;;;;;;5107417;28;20131;-69
2023/04/27 01:15:49;;;;;;;0.77;0.52;;;0.70;99.90;;;;;;5106926;28;20118;-69
2023/04/27 01:18:15;;;;;;;0.30;0.30;;;0.60;99.90;;;;;;5108772;28;20321;-69
2023/04/27 01:20:42;;;;;;;0.38;0.38;;;0.50;99.90;;;;;;5108962;28;20036;-69
2023/04/27 01:23:07;;;;;;;0.65;0.52;;;0.50;99.90;;;;;;5107088;28;20126;-69
2023/04/27 01:25:33;;;;;;;0.75;0.50;;;0.50;99.90;;;;;;5107357;28;20130;-69
2023/04/27 01:27:59;;;;;;;1.67;0.47;;;0.50;99.90;;;;;;5107254;28;20054;-69
2023/04/27 01:30:27;;;;;;;0.85;0.60;;;0.50;99.90;;;;;;5108156;28;20040;-69
2023/04/27 01:32:53;;;;;;;0.20;0.20;;;0.50;99.90;;;;;;5111319;28;20040;-69
2023/04/27 01:35:18;;;;;;;0.30;0.30;;;0.50;99.90;;;;;;5112892;28;20088;-69
2023/04/27 01:37:44;;;;;;;1.75;0.50;;;0.50;99.90;;;;;;5093559;28;20032;-69
2023/04/27 01:40:10;;;;;;;1.27;0.65;;;0.50;99.90;;;;;;5112722;28;20127;-69
2023/04/27 01:42:37;;;;;;;1.67;0.57;;;0.50;99.90;;;;;;5110740;28;20043;-69
2023/04/27 01:45:03;;;;;;;1.38;0.80;;;0.50;99.90;;;;;;5111468;28;20074;-69
2023/04/27 01:47:28;;;;;;;1.67;1.10;;;0.50;99.90;;;;;;5111388;28;20286;-70
2023/04/27 01:49:54;;;;;;;1.08;0.60;;;0.50;99.90;;;;;;5093242;28;20488;-70
2023/04/27 01:52:20;;;;;;;0.75;0.63;;;0.60;99.90;;;;;;5110945;28;20056;-69
2023/04/27 01:54:46;;;;;;;1.30;0.70;;;0.50;99.90;;;;;;5111155;28;20051;-69
2023/04/27 01:57:13;;;;;;;2.90;1.75;;;0.50;99.90;;;;;;5110426;28;20508;-69
2023/04/27 01:59:38;;;;;;;0.30;0.30;;;0.50;99.90;;;;;;5110808;28;20050;-70
2023/04/27 02:02:04;;;;;;;0.32;0.32;;;0.40;99.90;;;;;;5112426;28;20282;-70
2023/04/27 02:04:30;;;;;;;0.30;0.30;;;0.40;99.90;;;;;;5110307;28;20039;-70
2023/04/27 02:06:56;;;;;;;1.95;0.70;;;0.30;99.90;;;;;;5110731;28;20036;-69
2023/04/27 02:09:21;;;;;;;0.35;0.35;;;0.30;99.90;;;;;;5110712;28;20047;-70
2023/04/27 02:11:47;;;;;;;1.25;0.65;;;0.20;99.90;;;;;;5110290;28;20052;-70
2023/04/27 02:14:13;;;;;;;0.60;0.45;;;0.20;99.90;;;;;;5110574;28;20617;-70
2023/04/27 02:16:39;;;;;;;1.20;0.57;;;0.30;99.90;;;;;;5110848;28;20039;-70
2023/04/27 02:19:04;;;;;;;1.90;0.47;;;0.30;99.90;;;;;;5110138;28;20485;-70
2023/04/27 02:21:30;;;;;;;0.80;0.80;;;0.30;99.90;;;;;;5111702;28;20035;-70
2023/04/27 02:23:56;;;;;;;1.75;0.45;;;0.30;99.90;;;;;;5110613;28;20122;-70
2023/04/27 02:26:28;;;;;;;0.40;0.40;;;0.30;99.90;;;;;;5109659;28;20079;-70
2023/04/27 02:28:55;;;;;;;0.65;0.60;;;0.30;99.90;;;;;;5110467;28;20100;-70
2023/04/27 02:31:21;;;;;;;1.13;0.77;;;0.30;99.90;;;;;;5110349;28;20071;-70
2023/04/27 02:33:47;;;;;;;0.82;0.50;;;0.30;99.90;;;;;;5109774;28;20071;-70
2023/04/27 02:36:12;;;;;;;0.82;0.45;;;0.30;99.90;;;;;;5111726;28;20043;-70
2023/04/27 02:38:38;;;;;;;0.63;0.63;;;0.30;99.90;;;;;;5109482;28;20532;-70
2023/04/27 02:41:04;;;;;;;2.42;0.98;;;0.40;99.90;;;;;;5110438;28;20053;-70
2023/04/27 02:43:30;;;;;;;0.30;0.30;;;0.40;99.90;;;;;;5109283;28;20513;-70
2023/04/27 02:45:55;;;;;;;1.00;0.88;;;0.50;99.90;;;;;;5109624;28;20104;-70
2023/04/27 02:48:21;;;;;;;2.58;0.40;;;0.60;99.90;;;;;;5110122;28;20451;-70
2023/04/27 02:50:47;;;;;;;1.80;0.82;;;0.60;99.90;;;;;;5111432;28;20548;-70
2023/04/27 02:53:12;;;;;;;0.60;0.60;;;0.60;99.90;;;;;;5109516;28;20415;-70
2023/04/27 02:55:45;;;;;;;0.60;0.55;;;0.70;99.90;;;;;;5092853;28;20302;-70
2023/04/27 02:58:12;;;;;;;2.50;1.17;;;0.60;99.90;;;;;;5092862;28;20077;-71
2023/04/27 03:00:39;;;;;;;0.75;0.75;;;0.60;99.90;;;;;;5109274;28;20040;-70
2023/04/27 03:03:06;;;;;;;0.85;0.30;;;0.60;99.90;;;;;;5093307;28;20304;-70
2023/04/27 03:05:32;;;;;;;2.72;0.77;;;0.60;99.90;;;;;;5109704;28;20039;-70
2023/04/27 03:07:58;;;;;;;2.00;0.47;;;0.60;99.90;;;;;;5109114;28;20040;-70
2023/04/27 03:10:24;;;;;;;1.23;1.05;;;0.60;99.90;;;;;;5111288;28;20127;-70
2023/04/27 03:12:49;;;;;;;3.83;1.15;;;0.50;99.90;;;;;;5109475;28;20055;-70
2023/04/27 03:15:15;;;;;;;0.32;0.32;;;0.50;99.90;;;;;;5110297;28;20039;-70
2023/04/27 03:17:41;;;;;;;0.93;0.40;;;0.50;99.90;;;;;;5109902;28;20047;-71
2023/04/27 03:20:09;;;;;;;1.80;0.35;;;0.50;99.90;;;;;;5109676;28;20396;-70
2023/04/27 03:22:37;;;;;;;1.02;0.45;;;0.50;99.90;;;;;;5108895;28;20557;-70
2023/04/27 03:25:04;;;;;;;0.30;0.30;;;0.50;99.90;;;;;;5110581;28;20049;-70
2023/04/27 03:27:30;;;;;;;0.40;0.35;;;0.50;99.90;;;;;;5092152;28;20527;-71
2023/04/27 03:29:55;;;;;;;0.77;0.40;;;0.50;99.90;;;;;;5091757;28;20077;-70
2023/04/27 03:32:21;;;;;;;0.50;0.28;;;0.50;99.90;;;;;;5109051;28;20385;-70
2023/04/27 03:34:47;;;;;;;1.55;0.80;;;0.50;99.90;;;;;;5109702;28;20043;-70
2023/04/27 03:37:12;;;;;;;0.47;0.40;;;0.50;99.90;;;;;;5091959;28;20038;-70
2023/04/27 03:39:38;;;;;;;1.35;0.47;;;0.50;99.90;;;;;;5108820;28;20040;-70
2023/04/27 03:42:04;;;;;;;1.10;0.45;;;0.50;99.90;;;;;;5108471;28;20111;-70
2023/04/27 03:44:32;;;;;;;0.20;0.20;;;0.50;99.90;;;;;;5109000;28;20039;-70
2023/04/27 03:46:58;;;;;;;3.83;1.10;;;0.40;99.90;;;;;;5108926;28;20039;-70
2023/04/27 03:49:24;;;;;;;2.03;0.65;;;0.40;99.90;;;;;;5109572;28;20057;-70
2023/04/27 03:51:50;;;;;;;0.20;0.20;;;0.40;99.90;;;;;;5108848;28;20034;-70
2023/04/27 03:54:16;;;;;;;2.58;0.75;;;0.30;99.90;;;;;;5108277;28;20285;-70
2023/04/27 03:56:43;;;;;;;0.40;0.40;;;0.30;99.90;;;;;;5107932;28;20035;-70
2023/04/27 03:59:09;;;;;;;0.45;0.35;;;0.20;99.90;;;;;;5091553;28;20045;-70
2023/04/27 04:01:35;;;;;;;2.53;0.88;;;0.20;99.90;;;;;;5109936;28;20036;-70
2023/04/27 04:04:01;;;;;;;1.15;0.88;;;0.20;99.90;;;;;;5107885;28;20048;-70
2023/04/27 04:06:27;;;;;;;0.38;0.32;;;0.20;99.90;;;;;;5108395;28;20050;-70
2023/04/27 04:08:53;;;;;;;2.33;0.75;;;0.20;99.90;;;;;;5109939;28;20047;-70
2023/04/27 04:11:19;;;;;;;0.35;0.35;;;0.30;99.90;;;;;;5109179;28;20136;-70
2023/04/27 04:13:46;;;;;;;0.68;0.68;;;0.30;99.90;;;;;;5108439;28;20480;-70
2023/04/27 04:16:12;;;;;;;0.90;0.57;;;0.30;99.90;;;;;;5091512;28;20032;-70
2023/04/27 04:18:38;;;;;;;0.25;0.25;;;0.30;99.90;;;;;;5107542;28;20039;-70
2023/04/27 04:21:04;;;;;;;0.80;0.68;;;0.30;99.90;;;;;;5108420;28;20038;-70
2023/04/27 04:23:31;;;;;;;0.98;0.40;;;0.30;99.90;;;;;;5108046;28;20484;-70
2023/04/27 04:25:57;;;;;;;0.20;0.20;;;0.30;99.90;;;;;;5108989;28;20044;-70
2023/04/27 04:28:24;;;;;;;0.35;0.35;;;0.30;99.90;;;;;;5108126;28;20462;-70
2023/04/27 04:30:50;;;;;;;0.40;0.40;;;0.20;99.90;;;;;;5107898;28;20399;-70
2023/04/27 04:33:16;;;;;;;1.20;0.73;;;0.20;99.90;;;;;;5109208;28;20048;-70
2023/04/27 04:35:42;;;;;;;2.10;0.60;;;0.10;99.90;;;;;;5108305;28;20042;-70
2023/04/27 04:38:09;;;;;;;1.20;0.88;;;0.10;99.90;;;;;;5090822;28;20539;-70
2023/04/27 04:40:37;;;;;;;0.55;0.52;;;0.20;99.90;;;;;;5108160;28;20124;-70
2023/04/27 04:43:03;;;;;;;0.90;0.50;;;0.20;99.90;;;;;;5107832;28;20046;-70
2023/04/27 04:45:29;;;;;;;0.80;0.30;;;0.10;99.90;;;;;;5108783;28;20031;-70
2023/04/27 04:47:54;;;;;;;2.00;0.55;;;0.20;99.90;;;;;;5090799;28;20104;-70
2023/04/27 04:50:22;;;;;;;1.70;0.68;;;0.20;99.90;;;;;;5108043;28;20134;-70
2023/04/27 04:52:48;;;;;;;0.57;0.43;;;0.30;99.90;;;;;;5090318;28;20051;-70
2023/04/27 04:55:14;;;;;;;0.28;0.28;;;0.30;99.90;;;;;;5109014;28;20054;-70
2023/04/27 04:57:39;;;;;;;1.48;0.60;;;0.30;99.90;;;;;;5108241;28;20044;-70
2023/04/27 05:00:10;;;;;;;0.98;0.57;;;0.30;99.90;;;;;;5107230;28;20040;-70
2023/04/27 05:02:36;;;;;;;0.88;0.60;;;0.30;99.90;;;;;;5107807;28;20081;-70
2023/04/27 05:05:02;;;;;;;1.15;0.75;;;0.30;99.90;;;;;;5108704;28;20082;-70
2023/04/27 05:07:28;;;;;;;1.00;0.88;;;0.40;99.90;;;;;;5111313;28;20046;-70
2023/04/27 05:09:54;;;;;;;0.90;0.50;;;0.40;99.90;;;;;;5111617;28;20039;-70
2023/04/27 05:12:19;;;;;;;0.25;0.25;;;0.50;99.90;;;;;;5094534;28;20192;-70
2023/04/27 05:14:45;;;;;;;2.28;0.52;;;0.60;99.90;;;;;;5112580;28;20677;-70
2023/04/27 05:17:11;;;;;;;1.20;0.63;;;0.80;99.90;;;;;;5111814;28;20042;-69
2023/04/27 05:19:37;;;;;;;0.77;0.63;;;0.90;99.90;;;;;;5094168;28;20128;-70
2023/04/27 05:22:02;;;;;;;1.35;0.90;;;1.00;99.90;;;;;;5113133;28;20039;-70
2023/04/27 05:24:28;;;;;;;0.50;0.50;;;1.10;99.90;;;;;;5111801;28;20043;-70
2023/04/27 05:26:54;;;;;;;0.75;0.70;;;1.10;99.90;;;;;;5111486;28;20064;-70
2023/04/27 05:29:20;;;;;;;0.55;0.52;;;1.20;99.90;;;;;;5113159;28;20043;-70
2023/04/27 05:31:46;;;;;;;2.15;1.15;;;1.30;99.90;;;;;;5094900;28;20042;-70
2023/04/27 05:34:12;;;;;;;0.68;0.63;;;1.40;99.90;;;;;;5112419;28;20463;-70
2023/04/27 05:36:38;;;;;;;0.70;0.47;;;1.50;99.90;;;;;;5112058;28;20412;-69
2023/04/27 05:39:04;;;;;;;0.55;0.47;;;1.60;99.90;;;;;;5111783;28;20043;-69
2023/04/27 05:41:30;;;;;;;3.20;0.55;;;1.70;99.90;;;;;;5094155;28;20044;-69
2023/04/27 05:43:56;;;;;;;1.85;0.70;;;1.80;99.90;;;;;;5111466;28;20101;-69
2023/04/27 05:46:21;;;;;;;1.02;0.68;;;2.00;99.90;;;;;;5094396;28;20044;-69
2023/04/27 05:48:47;;;;;;;0.73;0.70;;;2.20;99.90;;;;;;5112359;28;20035;-69
2023/04/27 05:51:13;;;;;;;1.80;1.02;;;2.40;99.90;;;;;;5094610;28;20039;-68
2023/04/27 05:53:39;;;;;;;0.63;0.32;;;2.60;99.90;;;;;;5112823;28;20328;-68
2023/04/27 05:56:07;;;;;;;1.48;1.05;;;2.90;99.90;;;;;;5110865;28;20514;-68
2023/04/27 05:58:33;;;;;;;1.58;0.65;;;3.10;99.90;;;;;;5112772;28;20159;-68
2023/04/27 06:01:02;;;;;;;0.93;0.82;;;3.30;99.90;;;;;;5110870;28;20038;-68
2023/04/27 06:03:29;;;;;;;1.30;0.98;;;3.50;99.90;;;;;;5112074;28;20031;-68
2023/04/27 06:05:57;;;;;;;2.72;1.20;;;3.60;99.90;;;;;;5112449;28;20519;-68
2023/04/27 06:08:22;;;;;;;3.75;1.60;;;3.80;99.90;;;;;;5111131;28;20058;-68
2023/04/27 06:10:50;;;;;;;2.25;1.17;;;4.00;99.90;;;;;;5110236;28;20501;-68
2023/04/27 06:13:16;;;;;;;1.27;0.73;;;4.20;99.90;;;;;;5110489;28;20056;-68
2023/04/27 06:15:42;;;;;;;0.80;0.70;;;4.40;99.90;;;;;;5110126;28;20044;-68
2023/04/27 06:18:08;;;;;;;0.75;0.65;;;4.50;99.90;;;;;;5103249;28;20039;-68
2023/04/27 06:20:34;;;;;;;1.30;0.85;;;4.80;99.90;;;;;;5111934;28;20591;-68
2023/04/27 06:23:00;;;;;;;0.35;0.35;;;5.00;99.90;;;;;;5102930;28;20497;-68
2023/04/27 06:25:28;;;;;;;1.63;0.70;;;5.30;99.90;;;;;;5090400;28;20032;-68
2023/04/27 06:27:55;;;;;;;3.28;1.10;;;5.70;99.90;;;;;;5091230;28;20044;-68
2023/04/27 06:30:22;;;;;;;4.18;1.33;;;6.10;99.90;;;;;;5089513;28;20040;-68
2023/04/27 06:32:48;;;;;;;0.45;0.40;;;6.50;99.90;;;;;;5089752;28;20123;-68
2023/04/27 06:35:14;;;;;;;2.17;0.90;;;6.90;99.90;;;;;;5098443;28;20078;-68
2023/04/27 06:37:40;;;;;;;0.85;0.65;;;7.20;99.90;;;;;;5092406;28;20060;-68
2023/04/27 06:40:06;;;;;;;2.75;1.17;;;7.50;99.90;;;;;;5089896;28;20127;-67
2023/04/27 06:42:33;;;;;;;1.52;1.02;;;7.70;99.90;;;;;;5091092;28;20452;-68
2023/04/27 06:44:58;;;;;;;4.28;0.88;;;8.00;99.90;;;;;;5089408;28;20491;-68
2023/04/27 06:47:24;;;;;;;1.85;0.88;;;8.30;99.90;;;;;;5090870;28;20116;-68
2023/04/27 06:49:50;;;;;;;1.42;0.57;;;8.50;99.90;;;;;;5090672;28;20062;-68
2023/04/27 06:52:16;;;;;;;0.85;0.55;;;8.70;99.90;;;;;;5088835;28;20075;-67
2023/04/27 06:54:42;;;;;;;3.30;0.70;;;8.90;99.90;;;;;;5092319;28;20039;-68
2023/04/27 06:57:08;;;;;;;1.67;0.75;;;9.10;99.90;;;;;;5089173;28;20572;-68
2023/04/27 06:59:33;;;;;;;2.47;1.05;;;9.30;99.90;;;;;;5088666;28;20044;-68
2023/04/27 07:01:59;;;;;;;1.15;0.80;;;9.30;99.90;;;;;;5090704;28;20077;-66
2023/04/27 07:04:26;;;;;;;0.50;0.50;;;9.40;99.90;;;;;;5090842;28;20047;-67
2023/04/27 07:06:51;;;;;;;1.13;0.70;;;9.40;99.90;;;;;;5088275;28;20044;-67
2023/04/27 07:09:17;;;;;;;1.75;1.00;;;9.40;99.90;;;;;;5089171;28;20040;-68
2023/04/27 07:11:43;;;;;;;1.20;0.98;;;9.50;99.90;;;;;;5095113;28;20426;-68
2023/04/27 07:14:09;;;;;;;3.25;0.75;;;9.60;99.90;;;;;;5110761;28;20453;-69
2023/04/27 07:16:35;;;;;;;0.63;0.50;;;9.70;99.90;;;;;;5109183;28;20509;-68
2023/04/27 07:19:01;;;;;;;1.25;0.43;;;9.90;99.90;;;;;;5108586;28;20035;-69
2023/04/27 07:21:27;;;;;;;4.32;0.55;;;10.00;99.90;;;;;;5110652;28;20036;-68
2023/04/27 07:23:53;;;;;;;1.40;0.60;;;10.20;99.90;;;;;;5110749;28;20422;-68
2023/04/27 07:26:20;;;;;;;1.20;0.60;;;10.40;99.90;;;;;;5108554;28;20050;-69
2023/04/27 07:28:46;;;;;;;0.70;0.47;;;10.60;99.90;;;;;;5108690;28;20059;-69
2023/04/27 07:31:13;;;;;;;1.63;0.70;;;10.60;99.90;;;;;;5108992;28;20044;-69
2023/04/27 07:33:39;;;;;;;0.65;0.40;;;10.70;99.90;;;;;;5108431;28;20054;-69
2023/04/27 07:36:05;;;;;;;0.30;0.30;;;10.80;99.90;;;;;;5108928;28;20040;-68
2023/04/27 07:38:31;;;;;;;0.55;0.40;;;10.70;99.90;;;;;;5110378;28;20043;-68
2023/04/27 07:41:00;;;;;;;0.82;0.73;;;10.70;99.90;;;;;;5109456;28;20563;-68
2023/04/27 07:43:27;;;;;;;0.85;0.60;;;10.70;99.90;;;;;;5109790;28;20137;-68
2023/04/27 07:45:57;;;;;;;0.52;0.30;;;10.70;99.90;;;;;;5109950;27;20054;-68
2023/04/27 07:48:23;;;;;;;0.55;0.30;;;10.80;99.90;;;;;;5108255;28;20047;-68
2023/04/27 07:50:49;;;;;;;1.58;0.80;;;11.00;99.90;;;;;;5108611;28;20085;-68
2023/04/27 07:53:15;;;;;;;0.10;0.10;;;11.10;99.90;;;;;;5108528;28;20043;-69
2023/04/27 07:55:43;;;;;;;1.23;0.55;;;11.10;99.90;;;;;;5109394;28;20032;-68
2023/04/27 07:58:09;;;;;;;0.70;0.45;;;11.20;99.90;;;;;;5110023;28;20044;-68
2023/04/27 08:00:34;;;;;;;1.75;0.70;;;11.30;99.90;;;;;;5109475;28;20042;-68
2023/04/27 08:03:00;;;;;;;0.98;0.70;;;11.50;99.90;;;;;;5108769;28;20050;-68
2023/04/27 08:05:26;;;;;;;1.77;0.70;;;11.70;99.90;;;;;;5108622;28;20520;-67
2023/04/27 08:07:52;;;;;;;0.77;0.70;;;12.20;99.90;;;;;;5107878;28;20047;-67
2023/04/27 08:10:18;;;;;;;2.72;0.90;;;12.30;99.90;;;;;;5108444;28;20047;-66
2023/04/27 08:12:44;;;;;;;1.73;0.85;;;12.30;99.90;;;;;;5107885;28;20112;-68
2023/04/27 08:15:10;;;;;;;4.00;0.93;;;12.30;99.90;;;;;;5108891;28;20043;-68
2023/04/27 08:17:39;;;;;;;2.42;1.02;;;12.20;99.90;;;;;;5110658;28;20086;-67
2023/04/27 08:20:05;;;;;;;3.88;1.65;;;12.20;99.90;;;;;;5108605;28;20044;-68
2023/04/27 08:22:31;;;;;;;1.50;1.00;;;12.30;99.90;;;;;;5107367;28;20119;-68
2023/04/27 08:24:58;;;;;;;4.53;1.17;;;12.30;99.90;;;;;;5106252;28;20485;-68
2023/04/27 08:27:23;;;;;;;4.97;1.15;;;12.60;99.90;;;;;;5106523;28;20389;-68
2023/04/27 08:29:49;;;;;;;2.10;0.85;;;13.00;99.90;;;;;;5105513;28;20049;-68
2023/04/27 08:32:15;;;;;;;3.13;1.10;;;13.20;99.90;;;;;;5107722;28;20035;-66
2023/04/27 08:34:41;;;;;;;1.63;0.40;;;13.40;99.90;;;;;;5106099;28;20039;-68
2023/04/27 08:37:07;;;;;;;1.75;0.82;;;13.30;99.90;;;;;;5108496;28;20043;-67
2023/04/27 08:39:33;;;;;;;2.00;1.20;;;13.10;99.90;;;;;;5108779;28;20032;-67
2023/04/27 08:41:59;;;;;;;3.08;1.27;;;12.90;99.90;;;;;;5108956;28;20378;-66
2023/04/27 08:44:25;;;;;;;1.48;1.02;;;12.80;99.90;;;;;;5108037;28;20043;-66
2023/04/27 08:46:50;;;;;;;5.45;1.30;;;12.90;99.90;;;;;;5107805;28;20086;-66
2023/04/27 08:49:16;;;;;;;2.72;0.75;;;12.90;99.90;;;;;;5107932;28;20046;-68
2023/04/27 08:51:43;;;;;;;0.98;0.68;;;12.90;99.90;;;;;;5107378;28;20036;-68
2023/04/27 08:54:08;;;;;;;2.45;0.95;;;13.20;99.90;;;;;;5107690;28;20051;-68
2023/04/27 08:56:34;;;;;;;2.08;0.98;;;13.50;99.90;;;;;;5107181;28;20043;-67
2023/04/27 08:59:03;;;;;;;2.80;1.10;;;13.50;99.90;;;;;;5108077;28;20043;-68
2023/04/27 09:01:31;;;;;;;1.48;0.60;;;13.50;99.90;;;;;;5108118;28;20445;-67
2023/04/27 09:04:01;;;;;;;2.00;1.05;;;13.30;99.90;;;;;;5107289;28;20050;-67
2023/04/27 09:06:30;;;;;;;2.55;1.23;;;13.50;99.90;;;;;;5107711;28;20062;-67
2023/04/27 09:08:56;;;;;;;1.95;0.80;;;13.70;99.90;;;;;;5107624;28;20054;-67
2023/04/27 09:11:28;;;;;;;2.33;0.70;;;13.90;99.90;;;;;;5108509;28;20040;-68
2023/04/27 09:13:54;;;;;;;3.35;1.15;;;14.20;99.90;;;;;;5107490;28;20090;-67
2023/04/27 09:16:24;;;;;;;0.90;0.60;;;14.60;99.90;;;;;;5107901;28;20300;-67
2023/04/27 09:18:49;;;;;;;0.93;0.40;;;15.10;99.90;;;;;;5107166;28;20042;-67
2023/04/27 09:21:26;;;;;;;2.92;0.88;;;15.50;99.90;;;;;;5107509;28;20035;-67
2023/04/27 09:23:53;;;;;;;1.80;0.90;;;15.50;99.90;;;;;;5107728;28;20050;-66
2023/04/27 09:26:24;;;;;;;2.53;0.80;;;15.20;98.50;;;;;;5108252;28;20485;-67
2023/04/27 09:28:52;;;;;;;1.23;0.63;;;14.90;99.60;;;;;;5090765;28;20047;-67
2023/04/27 09:31:18;;;;;;;1.52;0.80;;;14.80;99.70;;;;;;5107477;28;20044;-67
2023/04/27 09:33:46;;;;;;;1.77;0.90;;;14.80;98.20;;;;;;5108005;28;20103;-67
2023/04/27 09:36:12;;;;;;;2.10;0.57;;;14.70;98.80;;;;;;5108933;28;20039;-68
2023/04/27 09:38:38;;;;;;;1.65;1.00;;;14.80;98.30;;;;;;5107319;28;20100;-67
2023/04/27 09:41:04;;;;;;;3.28;0.85;;;14.70;96.70;;;;;;5107594;28;20051;-67
2023/04/27 09:43:30;;;;;;;5.72;1.40;;;14.50;96.40;;;;;;5107347;28;20040;-67
2023/04/27 09:45:57;;;;;;;1.45;0.77;;;14.50;98.10;;;;;;5089813;28;20039;-67
2023/04/27 09:48:25;;;;;;;1.30;0.70;;;14.80;99.10;;;;;;5108694;28;20090;-67
2023/04/27 09:50:51;;;;;;;0.80;0.57;;;15.10;98.30;;;;;;5107558;28;20039;-67
2023/04/27 09:53:29;;;;;;;1.08;0.70;;;15.30;98.60;;;;;;5110340;28;20075;-67
2023/04/27 09:56:37;;;;;;;2.03;0.93;;;15.50;98.10;;;;;;5111287;28;20047;-67
2023/04/27 09:59:33;;;;;;;3.55;0.65;;;15.60;98.90;;;;;;5102447;28;20134;-67
2023/04/27 10:02:01;;;;;;;2.13;0.80;;;15.80;96.60;;;;;;5110787;28;20119;-67
2023/04/27 10:04:33;;;;;;;1.25;0.73;;;16.10;99.20;;;;;;5112208;28;20472;-67
2023/04/27 10:07:06;;;;;;;2.08;1.00;;;16.40;98.90;;;;;;5110052;28;20122;-67
2023/04/27 10:09:45;;;;;;;1.75;0.85;;;16.50;98.30;;;;;;5111830;28;20131;-67
2023/04/27 10:12:18;;;;;;;1.77;1.10;;;16.40;96.60;;;;;;5110487;28;20082;-67
2023/04/27 10:14:47;;;;;;;2.05;0.90;;;16.20;95.50;;;;;;5111342;28;20055;-67
2023/04/27 10:17:13;;;;;;;1.83;0.70;;;16.30;96.40;;;;;;5110624;28;20172;-67
2023/04/27 10:19:39;;;;;;;2.05;1.00;;;16.50;97.00;;;;;;5111950;28;20114;-67
2023/04/27 10:22:07;;;;;;;1.25;0.60;;;16.60;97.00;;;;;;5111569;28;20410;-67
2023/04/27 10:24:37;;;;;;;1.83;0.82;;;16.60;95.70;;;;;;5112006;28;20070;-67
2023/04/27 10:27:05;;;;;;;1.25;0.70;;;16.60;96.60;;;;;;5110322;28;20047;-67
2023/04/27 10:29:49;;;;;;;1.02;0.50;;;16.50;95.60;;;;;;5092993;28;20043;-67
2023/04/27 10:32:20;;;;;;;1.65;0.57;;;16.30;93.40;;;;;;5093028;28;20047;-67
2023/04/27 10:34:47;;;;;;;2.75;0.90;;;16.00;92.90;;;;;;5092404;28;20043;-67
2023/04/27 10:37:14;;;;;;;1.90;1.23;;;15.80;92.60;;;;;;5110023;28;20193;-67
2023/04/27 10:39:42;;;;;;;1.95;0.95;;;15.70;93.80;;;;;;5111573;28;20384;-67
2023/04/27 10:42:08;;;;;;;1.27;0.65;;;16.00;93.70;;;;;;5110893;28;20035;-67
2023/04/27 10:44:35;;;;;;;2.53;0.93;;;16.10;92.90;;;;;;5110075;28;20331;-67
2023/04/27 10:47:15;;;;;;;6.13;1.13;;;16.10;92.70;;;;;;5093141;28;20104;-67
2023/04/27 10:49:41;;;;;;;;;;;16.00;93.20;;;;;;5110031;28;20046;-67
2023/04/27 10:52:06;;;;;;;1.23;0.77;;;15.90;92.10;;;;;;5111296;28;20347;-67
2023/04/27 10:54:33;;;;;;;3.47;0.88;;;15.70;92.50;;;;;;5111029;28;20389;-67
2023/04/27 10:57:09;;;;;;;2.80;0.60;;;15.80;93.10;;;;;;5110636;28;20071;-67
2023/04/27 10:59:51;;;;;;;2.22;0.80;;;15.90;93.10;;;;;;5109643;28;20045;-67
2023/04/27 11:02:24;;;;;;;3.00;0.90;;;15.80;91.70;;;;;;5110668;28;20032;-67
2023/04/27 11:04:50;;;;;;;3.85;1.38;;;15.60;90.70;;;;;;5108446;28;20039;-66
2023/04/27 11:07:27;;;;;;;2.92;0.90;;;15.50;91.90;;;;;;5109648;28;20035;-67
2023/04/27 11:09:54;;;;;;;6.32;1.10;;;15.50;91.80;;;;;;5109077;28;20062;-67
2023/04/27 11:12:20;;;;;;;1.42;0.77;;;15.50;92.30;;;;;;5109300;28;20119;-67
2023/04/27 11:14:46;;;;;;;3.42;1.20;;;15.60;92.60;;;;;;5093046;28;20075;-66
2023/04/27 11:17:12;;;;;;;2.38;1.17;;;15.80;92.50;;;;;;5109093;28;20071;-67
2023/04/27 11:19:46;;;;;;;3.22;1.05;;;16.00;91.90;;;;;;5109791;28;20036;-67
2023/04/27 11:22:15;;;;;;;1.83;1.10;;;16.00;90.10;;;;;;5092348;28;20031;-67
2023/04/27 11:24:45;;;;;;;;;;;15.90;90.40;;;;;;5108984;28;20035;-68
2023/04/27 11:27:11;;;;;;;;;;;16.10;90.30;;;;;;5093250;28;20273;-68
2023/04/27 11:29:38;;;;;;;2.33;1.33;;;16.00;88.80;;;;;;5109138;28;20014;-66
2023/04/27 11:32:04;;;;;;;3.65;1.13;;;15.90;90.20;;;;;;5108343;28;20050;-66
2023/04/27 11:34:37;;;;;;;1.83;1.13;;;15.90;90.50;;;;;;5108889;28;20067;-67
2023/04/27 11:37:05;;;;;;;3.10;1.20;;;16.00;91.20;;;;;;5110248;28;20043;-66
2023/04/27 11:39:35;;;;;;;1.40;0.85;;;16.10;91.20;;;;;;5109520;28;20165;-67
2023/04/27 11:42:21;;;;;;;1.48;1.00;;;16.20;90.80;;;;;;5109133;28;20035;-67
2023/04/27 11:45:00;;;;;;;1.90;1.20;;;16.20;89.50;;;;;;5109706;28;20028;-67
2023/04/27 11:47:27;;;;;;;;;;;16.00;88.40;;;;;;5109203;28;20499;-66
2023/04/27 11:50:00;;;;;;;3.05;1.52;;;15.80;88.60;;;;;;5110218;28;20317;-67
2023/04/27 11:52:33;;;;;;;1.85;0.98;;;15.70;89.50;;;;;;5091385;28;20430;-67
2023/04/27 11:55:00;;;;;;;1.88;1.00;;;15.70;90.00;;;;;;5108883;28;20065;-66
2023/04/27 11:57:28;;;;;;;2.13;0.88;;;15.60;89.80;;;;;;5110090;28;20409;-67
2023/04/27 11:59:58;;;;;;;1.55;0.73;;;15.20;90.00;;;;;;5107864;28;20040;-66
2023/04/27 12:02:27;;;;;;;1.95;1.02;;;15.00;90.60;;;;;;5110164;28;20405;-66
2023/04/27 12:04:53;;;;;;;4.10;1.17;;;14.80;90.10;;;;;;5108717;28;20065;-66
2023/04/27 12:07:19;;;;;;;2.95;0.98;;;14.50;90.50;;;;;;5107722;28;20119;-67
2023/04/27 12:09:45;;;;;;;2.10;1.10;;;14.30;90.50;;;;;;5108340;28;20067;-66
2023/04/27 12:12:12;;;;;;;1.52;1.13;;;14.20;90.70;;;;;;5108372;28;20517;-66
2023/04/27 12:14:39;;;;;;;1.67;0.73;;;14.00;89.90;;;;;;5107615;28;20130;-66
2023/04/27 12:17:05;;;;;;;2.30;1.02;;;13.80;90.30;;;;;;5108213;28;20046;-66
2023/04/27 12:19:31;;;;;;;1.55;0.75;;;13.70;90.80;;;;;;5109754;28;20035;-66
2023/04/27 12:21:58;;;;;;;3.67;0.65;;;13.80;91.70;;;;;;5108298;28;20126;-67
2023/04/27 12:24:24;;;;;;;2.60;0.95;;;13.70;90.90;;;;;;5091152;28;20044;-66
2023/04/27 12:26:50;;;;;;;2.20;1.05;;;13.70;90.90;;;;;;5107506;28;20042;-66
2023/04/27 12:29:16;;;;;;;2.58;0.95;;;13.60;90.40;;;;;;5091303;28;20039;-67
2023/04/27 12:31:42;;;;;;;2.83;1.00;;;13.40;89.50;;;;;;5109250;28;20047;-66
2023/04/27 12:34:08;;;;;;;1.20;0.85;;;13.50;90.80;;;;;;5107310;28;20039;-67
2023/04/27 12:36:35;;;;;;;2.17;0.90;;;13.50;90.60;;;;;;5108199;28;20083;-67
2023/04/27 12:39:13;;;;;;;3.28;0.85;;;13.60;90.90;;;;;;5107890;28;20047;-66
2023/04/27 12:41:39;;;;;;;2.83;0.90;;;13.60;90.20;;;;;;5107603;28;20071;-67
2023/04/27 12:44:05;;;;;;;2.88;0.93;;;13.50;89.80;;;;;;5109660;28;20100;-66
2023/04/27 12:46:31;;;;;;;1.83;1.13;;;13.50;90.40;;;;;;5108121;28;20492;-66
2023/04/27 12:48:57;;;;;;;1.83;0.90;;;13.50;91.30;;;;;;5107286;28;20092;-67
2023/04/27 12:51:23;;;;;;;5.13;1.25;;;13.60;91.50;;;;;;5108207;28;20035;-66